Tiempo atmosférico en la estación meteorológica de Espiel, Córdoba (465 m.)



Fecha
DESCASC
Temp. máxima en grados centígrados (hora)
DESCASC
Temp. mínima en grados centígrados (hora)
DESCASC
Temp. media en grados centígrados
DESCASC
Racha de viento máxima en m/sg (hora)
DESCASC
Velocidad máxima media en intervalos de 10 minutos(hora)
DESCASC
Precipitaciones diarias en mm
DESCASC
Precipitaciones de 00:00 a 06:00 en mm
DESCASC
Precipitaciones de 06:00 a 12:00 en mm
DESCASC
Precipitaciones de 12:00 a 18:00 en mm
DESCASC
Precipitaciones de 18:00 a 24:00 en mm
DESCASC
18-10-2018 16.1 (00:00) 11 (20:30) 13.6 9.72 (10:50) 3.89 (10:50) 23.8 0 18.2 1.4 4.2
17-10-2018 24.2 (16:00) 9.2 (07:50) 16.7 5.56 (17:40) 2.22 (17:40) 0 0 0 0 0
16-10-2018 21.5 (18:00) 12.2 (23:50) 16.8 4.72 (11:10) 2.5 (11:10) 0 0 0 0 0
15-10-2018 15.6 (13:10) 6.4 (08:20) 11 7.22 (21:10) 3.33 (20:40) 16.8 0 0 6.6 10.2
14-10-2018 20.7 (00:00) 12.4 (00:00) 16.6 10.83 (12:00) 6.11 (12:00) 6.2 1.6 4.4 0.2 0
13-10-2018 29.7 (16:00) 12.3 (00:00) 21 6.67 (18:50) 2.78 (16:30) 0 0 0 0 0
12-10-2018 26 (16:50) 16 (00:00) 21 4.44 (16:10) 1.94 (12:20) 0.4 0.2 0.2 0 0
11-10-2018 23.3 (18:10) 17.3 (08:10) 20.3 8.33 (15:10) 3.33 (15:10) 0.8 0 0.6 0 0.2
10-10-2018 24.2 (16:30) 15.2 (00:00) 19.7 6.39 (17:30) 2.78 (09:30) 0 0 0 0 0
09-10-2018 25.9 (17:00) 8.6 (07:30) 17.3 6.39 (15:30) 3.33 (15:30) 0 0 0 0 0
08-10-2018 26.4 (16:30) 7.3 (08:40) 16.8 4.44 (15:00) 2.22 (14:50) 0 0 0 0 0
07-10-2018 29.7 (16:40) 11 (08:30) 20.4 7.78 (16:40) 4.17 (18:00) 0 0 0 0 0
06-10-2018 30.6 (17:10) 10.7 (08:30) 20.7 6.11 (17:40) 3.33 (17:40) 0 0 0 0 0
05-10-2018 30.2 (16:10) 11 (08:20) 20.6 4.72 (16:40) 2.22 (07:00) 0 0 0 0 0
04-10-2018 29.9 (16:10) 11 (00:00) 20.4 5 (11:50) 2.22 (18:40) 0 0 0 0 0
03-10-2018 30.3 (17:00) 8.7 (00:00) 19.5 5 (17:00) 2.5 (16:10) 0 0 0 0 0
02-10-2018 29.8 (16:40) 9.6 (00:00) 19.7 8.33 (14:40) 3.33 (17:20) 0 0 0 0 0
01-10-2018 31.2 (17:00) 14.2 (00:00) 22.7 7.22 (17:00) 3.61 (17:00) 0 0 0 0 0
30-09-2018 29.6 (16:40) 14.7 (00:00) 22.2 5.28 (14:40) 2.78 (18:00) 0 0 0 0 0
29-09-2018 30.2 (17:00) 13.7 (00:00) 22 4.72 (19:30) 2.22 (15:40) 0 0 0 0 0
28-09-2018 29.5 (17:20) 14.4 (00:00) 21.9 6.11 (16:30) 2.78 (16:50) 0 0 0 0 0
27-09-2018 29 (18:10) 15.8 (00:00) 22.4 8.33 (13:10) 3.89 (12:00) 0.2 0 0.2 0 0
26-09-2018 31.1 (17:10) 18.5 (00:00) 24.8 14.44 (18:10) 6.94 (18:10) 9.6 0 0 0 9.6
25-09-2018 34.4 (15:40) 15.7 (00:00) 25.1 6.11 (16:10) 2.5 (14:50) 0 0 0 0 0
24-09-2018 36.2 (17:00) 15.6 (00:00) 25.9 6.11 (14:10) 2.78 (15:00) 0 0 0 0 0
23-09-2018 35.4 (17:30) 15.7 (08:20) 25.6 7.22 (17:00) 3.06 (15:40) 0 0 0 0 0
22-09-2018 35.2 (17:30) 15.7 (08:10) 25.5 5.83 (16:10) 2.5 (15:20) 0 0 0 0 0
21-09-2018 33 (16:30) 16.6 (07:50) 24.8 5.83 (15:40) 2.5 (16:30) 0 0 0 0 0
20-09-2018 32.3 (17:00) 17.4 (08:20) 24.8 5.56 (15:30) 2.5 (17:00) 0 0 0 0 0

Gráficas

Temp. máximas Temp. mínimas Temp. medias Precipitaciones Rachas de viento máximas Velocidades máximas media en intervalos de 10 minutos

Datos horarios

Fecha y hora oficial Temperatura (ºC) Velocidad del viento (km/h) Dirección del viento Racha (km/h) Dirección de racha Precipitación (mm) Presión (hPa) Tendencia (hPa) Humedad (%)
2018-10-19 23:00:00 11.2 0 Calma 4 Este 0 -- -- 90
2018-10-19 22:00:00 12.1 0 Calma 5 Nordeste 0 -- -- 86
2018-10-19 21:00:00 13.5 0 Calma 6 Nordeste 0 -- -- 82
2018-10-19 20:00:00 15.4 0 Calma 10 Norte 0 -- -- 76
2018-10-19 19:00:00 18.2 5 Norte 12 Norte 0 -- -- 65
2018-10-19 18:00:00 17.9 5 Sudeste 20 Sudeste 0 -- -- 61
2018-10-19 17:00:00 18.9 5 Este 18 Sur 0 -- -- 55
2018-10-19 16:00:00 18 9 Este 18 Sudeste 0 -- -- 63
2018-10-19 15:00:00 19.6 8 Sudoeste 18 Oeste 0 -- -- 51
2018-10-19 14:00:00 17.9 10 Sudeste 19 Sudeste 0 -- -- 58
2018-10-19 13:00:00 17.4 6 Sudoeste 16 Sur 0 -- -- 66
2018-10-19 12:00:00 15.5 6 Sudoeste 14 Sudoeste 0.2 -- -- 73
2018-10-19 11:00:00 13.6 2 Oeste 6 Sur 0 -- -- 84
2018-10-19 10:00:00 10.6 0 Calma 6 Sudeste 0 -- -- 96
2018-10-19 09:00:00 9.2 2 Sur 7 Este 0 -- -- 95
2018-10-19 08:00:00 9.1 2 Sudeste 5 Sudeste 0 -- -- 94
2018-10-19 07:00:00 10.6 0 Calma 4 Norte 0 -- -- 93
2018-10-19 06:00:00 10.9 0 Calma 5 Nordeste 0 -- -- 94
2018-10-19 05:00:00 10.9 3 Nordeste 6 Este 1.2 -- -- 94
2018-10-19 04:00:00 11.1 0 Calma 4 Este 0.6 -- -- 95
2018-10-19 03:00:00 10.8 0 Calma 5 Nordeste 0 -- -- 94
2018-10-19 02:00:00 10.8 3 Este 5 Este 0 -- -- 94
2018-10-19 01:00:00 11 3 Nordeste 5 Nordeste 0.8 -- -- 94
2018-10-19 00:00:00 11.1 0 Calma 7 Sur 1 -- -- 94
2018-10-18 23:00:00 11.1 0 Calma 9 Este 1.4 -- -- 94
2018-10-18 22:00:00 11.2 2 Oeste 9 Sudeste 0.8 -- -- 92
2018-10-18 21:00:00 11.1 0 Calma 8 Sur 0 -- -- 92
2018-10-18 20:00:00 11.4 4 Sur 10 Sudeste 0.4 -- -- 91
2018-10-18 19:00:00 11.9 3 Sur 8 Sudeste 0.6 -- -- 90
2018-10-18 18:00:00 12 4 Sur 13 Sur 0 -- -- 87
2018-10-18 17:00:00 12.4 3 Sudoeste 6 Sur 0 -- -- 83
2018-10-18 16:00:00 11.9 3 Sur 14 Sudoeste 0 -- -- 85
2018-10-18 15:00:00 12.3 3 Sudoeste 14 Sur 0 -- -- 86
2018-10-18 14:00:00 12.6 2 Sur 5 Sur 0 -- -- 91
2018-10-18 13:00:00 12.3 0 Calma 6 Sur 1.4 -- -- 90
2018-10-18 12:00:00 11.9 3 Este 22 Oeste 3.6 -- -- 90
2018-10-18 11:00:00 12.7 12 Oeste 35 Oeste 0 -- -- 85
2018-10-18 10:00:00 13.9 0 Calma 15 Sudeste 2.8 -- -- 92
2018-10-18 09:00:00 13.8 2 Sudoeste 7 Sudoeste 3.8 -- -- 93
2018-10-18 08:00:00 14.2 3 Sudeste 7 Sur 4.4 -- -- 93
2018-10-18 07:00:00 14.5 3 Este 9 Sur 3.6 -- -- 93
2018-10-18 06:00:00 14.5 4 Sur 13 Sur 0 -- -- 90
2018-10-18 05:00:00 14.2 4 Sur 10 Sur 0 -- -- 90
2018-10-18 04:00:00 13.8 0 Calma 4 Sudoeste 0 -- -- 88
2018-10-18 03:00:00 14.2 2 Sur 5 Sur 0 -- -- 83
2018-10-18 02:00:00 15.4 2 Sudoeste 5 Este 0 -- -- 79
2018-10-18 01:00:00 16 0 Calma 5 Sur 0 -- -- 74
2018-10-18 00:00:00 16.1 3 Sur 6 Oeste 0 -- -- 72
2018-10-17 23:00:00 16 0 Calma 8 Sur 0 -- -- 71
2018-10-17 22:00:00 17.9 4 Sudeste 8 Oeste 0 -- -- 65
2018-10-17 21:00:00 17.9 2 Sudoeste 9 Oeste 0 -- -- 62
2018-10-17 20:00:00 20.3 4 Noroeste 19 Oeste 0 -- -- 54
2018-10-17 19:00:00 22.7 7 Oeste 16 Oeste 0 -- -- 45
2018-10-17 18:00:00 23.9 6 Oeste 20 Oeste 0 -- -- 43
2018-10-17 17:00:00 22.8 3 Oeste 13 Oeste 0 -- -- 50
2018-10-17 16:00:00 24.2 6 Oeste 14 Oeste 0 -- -- 46
2018-10-17 15:00:00 23.6 7 Noroeste 13 Noroeste 0 -- -- 42
2018-10-17 14:00:00 22.8 5 Oeste 10 Oeste 0 -- -- 49
2018-10-17 13:00:00 20.8 5 Oeste 9 Noroeste 0 -- -- 57
2018-10-17 12:00:00 18.4 3 Noroeste 5 Noroeste 0 -- -- 69
2018-10-17 11:00:00 15.7 2 Noroeste 5 Oeste 0 -- -- 80
2018-10-17 10:00:00 13.2 0 Calma 4 Sur 0 -- -- 90
2018-10-17 09:00:00 9.6 2 Sur 6 Nordeste 0 -- -- 96
2018-10-17 08:00:00 9.3 0 Calma 4 Nordeste 0 -- -- 95
2018-10-17 07:00:00 9.6 0 Calma 6 Nordeste 0 -- -- 95
2018-10-17 06:00:00 9.8 0 Calma 4 Nordeste 0 -- -- 94
2018-10-17 05:00:00 10.3 2 Nordeste 5 Nordeste 0 -- -- 94
2018-10-17 04:00:00 10.5 2 Sur 4 Sudeste 0 -- -- 94
2018-10-17 03:00:00 10.9 0 Calma 8 Norte 0 -- -- 92
2018-10-17 02:00:00 11.3 0 Calma 6 Nordeste 0 -- -- 92
2018-10-17 01:00:00 11.7 3 Este 5 Nordeste 0 -- -- 91
2018-10-17 00:00:00 12.2 0 Calma 5 Nordeste 0 -- -- 89
2018-10-16 23:00:00 13 0 Calma 3 Este 0 -- -- 87
2018-10-16 22:00:00 14.6 0 Calma 2 Este 0 -- -- 82
2018-10-16 21:00:00 16.1 2 Sudeste 5 Este 0 -- -- 74
2018-10-16 20:00:00 17.5 4 Este 10 Este 0 -- -- 71
2018-10-16 19:00:00 19.8 4 Este 14 Sur 0 -- -- 58
2018-10-16 18:00:00 21.5 4 Norte 12 Este 0 -- -- 52
2018-10-16 17:00:00 20.3 6 Noroeste 10 Noroeste 0 -- -- 61
2018-10-16 16:00:00 19.2 4 Sur 10 Sudeste 0 -- -- 62
2018-10-16 15:00:00 18.1 2 Este 10 Noroeste 0 -- -- 68
2018-10-16 14:00:00 18 4 Sudoeste 15 Sudeste 0 -- -- 69
2018-10-16 13:00:00 17.4 6 Este 13 Este 0 -- -- 70
2018-10-16 12:00:00 16.6 4 Sudeste 17 Este 0 -- -- 73
2018-10-16 11:00:00 15.9 8 Este 14 Este 0 -- -- 79
2018-10-16 10:00:00 14.6 3 Nordeste 6 Nordeste 0 -- -- 90
2018-10-16 09:00:00 12.9 2 Este 5 Nordeste 0 -- -- 94
2018-10-16 08:00:00 12.9 2 Este 7 Sur 0 -- -- 94
2018-10-16 07:00:00 12.8 0 Calma 5 Este 0 -- -- 94
2018-10-16 06:00:00 12.7 0 Calma 6 Sudoeste 0 -- -- 94
2018-10-16 05:00:00 12.6 2 Sudoeste 6 Sur 0 -- -- 94
2018-10-16 04:00:00 12.6 4 Sudeste 9 Sudeste 0 -- -- 94
2018-10-16 03:00:00 12.6 3 Sur 7 Sudoeste 0 -- -- 94
2018-10-16 02:00:00 12.6 3 Sur 9 Sur 0 -- -- 94
2018-10-16 01:00:00 12.6 5 Sur 14 Sur 0 -- -- 94
2018-10-16 00:00:00 12.4 6 Sur 15 Sur 0.6 -- -- 94
2018-10-15 23:00:00 12.5 5 Sur 19 Sur 0.2 -- -- 94
2018-10-15 22:00:00 12.6 9 Sur 26 Sudoeste 0.6 -- -- 94
2018-10-15 21:00:00 12.6 11 Sur 22 Sur 2.4 -- -- 93
2018-10-15 20:00:00 13.1 7 Sudoeste 20 Sur 3 -- -- 93
2018-10-15 19:00:00 13.1 7 Sudoeste 23 Sur 3.4 -- -- 92
2018-10-15 18:00:00 12.8 10 Sur 22 Sur 4.4 -- -- 92
2018-10-15 17:00:00 12.9 8 Sur 16 Sur 0 -- -- 89
2018-10-15 16:00:00 12.9 5 Sudoeste 16 Oeste 2.2 -- -- 86
2018-10-15 15:00:00 14.6 7 Oeste 21 Sudoeste 0 -- -- 69
2018-10-15 14:00:00 14.7 8 Sudoeste 23 Sudoeste 0 -- -- 64
2018-10-15 13:00:00 15.5 8 Oeste 21 Oeste 0 -- -- 60
2018-10-15 12:00:00 13.6 4 Oeste 13 Sudoeste 0 -- -- 66
2018-10-15 11:00:00 11.9 4 Oeste 9 Sudoeste 0 -- -- 71
2018-10-15 10:00:00 10.4 3 Sur 7 Sur 0 -- -- 79
2018-10-15 09:00:00 7.7 0 Calma 6 Este 0 -- -- 93
2018-10-15 08:00:00 6.7 0 Calma 11 Norte 0 -- -- 89
2018-10-15 07:00:00 8.2 5 Nordeste 10 Nordeste 0 -- -- 90
2018-10-15 06:00:00 9.5 3 Nordeste 13 Nordeste 0 -- -- 84
2018-10-15 05:00:00 9.9 5 Nordeste 15 Nordeste 0 -- -- 82
2018-10-15 04:00:00 10 5 Nordeste 13 Nordeste 0 -- -- 82
2018-10-15 03:00:00 9.7 3 Nordeste 14 Nordeste 0 -- -- 81
2018-10-15 02:00:00 11.2 6 Nordeste 15 Nordeste 0 -- -- 78
2018-10-15 01:00:00 11.7 5 Nordeste 15 Nordeste 0 -- -- 76
2018-10-15 00:00:00 12.4 10 Nordeste 21 Norte 0 -- -- 74
2018-10-14 23:00:00 12.7 5 Nordeste 17 Norte 0 -- -- 71
2018-10-14 22:00:00 13.2 6 Norte 13 Nordeste 0 -- -- 70
2018-10-14 21:00:00 14 5 Nordeste 19 Norte 0 -- -- 65
2018-10-14 20:00:00 15.1 12 Norte 35 Norte 0 -- -- 59
2018-10-14 19:00:00 17 13 Norte 38 Norte 0 -- -- 51
2018-10-14 18:00:00 17.7 17 Norte 34 Noroeste 0 -- -- 48
2018-10-14 17:00:00 17.3 13 Norte 35 Nordeste 0 -- -- 50
2018-10-14 16:00:00 16.9 15 Norte 37 Norte 0 -- -- 52
2018-10-14 15:00:00 16.6 15 Norte 35 Norte 0.2 -- -- 54
2018-10-14 14:00:00 16.6 15 Norte 36 Noroeste 0 -- -- 56
2018-10-14 13:00:00 16 20 Norte 35 Nordeste 0 -- -- 59
2018-10-14 12:00:00 14.8 22 Norte 39 Nordeste 0 -- -- 66
2018-10-14 11:00:00 13.8 10 Nordeste 32 Norte 0 -- -- 80
2018-10-14 10:00:00 13.6 14 Norte 31 Nordeste 0 -- -- 84
2018-10-14 09:00:00 15.6 10 Norte 20 Nordeste 0 -- -- 85
2018-10-14 08:00:00 16.6 8 Noroeste 22 Norte 0.2 -- -- 89
2018-10-14 07:00:00 16.8 6 Sur 19 Noroeste 4.2 -- -- 91
2018-10-14 06:00:00 17.5 8 Oeste 27 Noroeste 1.6 -- -- 86
2018-10-14 05:00:00 18.6 6 Oeste 22 Sudoeste 0 -- -- 73
2018-10-14 04:00:00 18.3 4 Sudoeste 14 Oeste 0 -- -- 73
2018-10-14 03:00:00 19 3 Sur 14 Sudoeste 0 -- -- 68
2018-10-14 02:00:00 19.6 6 Sudoeste 16 Sur 0 -- -- 64
2018-10-14 01:00:00 19.9 8 Sur 14 Sur 0 -- -- 63
2018-10-14 00:00:00 20.7 6 Sur 14 Sur 0 -- -- 61
2018-10-13 23:00:00 21.3 5 Sur 13 Sur 0 -- -- 58
2018-10-13 22:00:00 21.9 4 Sudoeste 10 Sudoeste 0 -- -- 55
2018-10-13 21:00:00 20.6 2 Sur 6 Sudoeste 0 -- -- 51
2018-10-13 20:00:00 25.7 3 Oeste 22 Oeste 0 -- -- 38
2018-10-13 19:00:00 28.2 8 Oeste 24 Oeste 0 -- -- 35
2018-10-13 18:00:00 29.3 7 Oeste 21 Oeste 0 -- -- 35
2018-10-13 17:00:00 29.7 8 Oeste 20 Oeste 0 -- -- 35
2018-10-13 16:00:00 29.7 9 Oeste 17 Oeste 0 -- -- 33
2018-10-13 15:00:00 29.1 8 Oeste 16 Noroeste 0 -- -- 34
2018-10-13 14:00:00 28.6 6 Oeste 18 Oeste 0 -- -- 38
2018-10-13 13:00:00 26.6 6 Oeste 17 Oeste 0 -- -- 46
2018-10-13 12:00:00 23.7 4 Oeste 12 Oeste 0 -- -- 61
2018-10-13 11:00:00 18.4 2 Oeste 4 Noroeste 0 -- -- 87
2018-10-13 10:00:00 15.2 0 Calma 3 Este 0 -- -- 96
2018-10-13 09:00:00 13.8 0 Calma 4 Sudeste 0 -- -- 97
2018-10-13 08:00:00 12.9 2 Sur 4 Sur 0 -- -- 95
2018-10-13 07:00:00 12.6 0 Calma 3 Nordeste 0 -- -- 94
2018-10-13 06:00:00 12.9 0 Calma 3 Sur 0 -- -- 94
2018-10-13 05:00:00 13.1 0 Calma 4 Nordeste 0 -- -- 93
2018-10-13 04:00:00 13.5 0 Calma 3 Sur 0 -- -- 93
2018-10-13 03:00:00 13.9 2 Sur 3 Sur 0 -- -- 91
2018-10-13 02:00:00 14.8 0 Calma 2 Sur 0 -- -- 90
2018-10-13 01:00:00 15.4 0 Calma 2 Este 0 -- -- 89
2018-10-13 00:00:00 16 0 Calma 4 Sur 0 -- -- 87
2018-10-12 23:00:00 16.8 0 Calma 4 Sur 0 -- -- 85
2018-10-12 22:00:00 17.9 0 Calma 4 Nordeste 0 -- -- 79
2018-10-12 21:00:00 19.5 0 Calma 8 Nordeste 0 -- -- 72
2018-10-12 20:00:00 21.4 2 Nordeste 4 Norte 0 -- -- 65
2018-10-12 19:00:00 24.6 3 Nordeste 11 Norte 0 -- -- 55
2018-10-12 18:00:00 25.7 3 Oeste 6 Oeste 0 -- -- 53
2018-10-12 17:00:00 26 4 Oeste 16 Oeste 0 -- -- 51
2018-10-12 16:00:00 25.5 4 Oeste 13 Noroeste 0 -- -- 53
2018-10-12 15:00:00 24.3 5 Noroeste 14 Oeste 0 -- -- 58
2018-10-12 14:00:00 23.9 5 Noroeste 13 Noroeste 0 -- -- 60
2018-10-12 13:00:00 23.3 5 Sudoeste 15 Oeste 0 -- -- 65
2018-10-12 12:00:00 22.1 6 Oeste 15 Oeste 0.2 -- -- 72
2018-10-12 11:00:00 20.2 4 Oeste 9 Sudoeste 0 -- -- 80
2018-10-12 10:00:00 17.9 2 Sur 7 Sur 0 -- -- 90
2018-10-12 09:00:00 17.5 0 Calma 6 Sur 0 -- -- 91
2018-10-12 08:00:00 17.4 4 Sur 7 Sudeste 0 -- -- 92
2018-10-12 07:00:00 17.4 4 Sur 13 Sur 0 -- -- 92
2018-10-12 06:00:00 17.5 5 Sur 12 Sur 0.2 -- -- 92
2018-10-12 05:00:00 18 3 Sudoeste 13 Oeste 0 -- -- 88
2018-10-12 04:00:00 18.5 4 Sudoeste 14 Oeste 0 -- -- 85
2018-10-12 03:00:00 18.8 2 Oeste 12 Oeste 0 -- -- 84
2018-10-12 02:00:00 18.9 3 Oeste 12 Oeste 0 -- -- 81
2018-10-12 01:00:00 19 5 Sudoeste 15 Norte 0 -- -- 79
2018-10-12 00:00:00 19.3 5 Oeste 14 Oeste 0 -- -- 78
2018-10-11 23:00:00 19.6 4 Noroeste 14 Sudoeste 0 -- -- 76
2018-10-11 22:00:00 19.6 4 Noroeste 11 Noroeste 0 -- -- 74
2018-10-11 21:00:00 20.3 9 Noroeste 21 Noroeste 0 -- -- 70
2018-10-11 20:00:00 21.4 8 Oeste 20 Noroeste 0 -- -- 62
2018-10-11 19:00:00 22.4 7 Oeste 22 Oeste 0.2 -- -- 57
2018-10-11 18:00:00 23.2 9 Oeste 26 Oeste 0 -- -- 56
2018-10-11 17:00:00 22.8 6 Oeste 27 Noroeste 0 -- -- 64
2018-10-11 16:00:00 21.7 8 Oeste 30 Noroeste 0 -- -- 70
2018-10-11 15:00:00 19.6 10 Noroeste 21 Oeste 0 -- -- 80
2018-10-11 14:00:00 19.2 6 Oeste 23 Oeste 0 -- -- 83
2018-10-11 13:00:00 18.4 8 Sudoeste 22 Oeste 0 -- -- 87
2018-10-11 12:00:00 17.8 6 Sur 18 Sur 0.4 -- -- 88
2018-10-11 11:00:00 18.3 5 Sudoeste 13 Sur 0 -- -- 81
2018-10-11 10:00:00 18.1 4 Sudoeste 17 Sur 0 -- -- 84
2018-10-11 09:00:00 17.6 4 Sur 12 Sudoeste 0 -- -- 87
2018-10-11 08:00:00 17.5 7 Sur 15 Sur 0.2 -- -- 87
2018-10-11 07:00:00 17.8 6 Sur 13 Sur 0 -- -- 85
2018-10-11 06:00:00 17.7 6 Sur 14 Sur 0 -- -- 85
2018-10-11 05:00:00 18.3 3 Sudoeste 19 Oeste 0 -- -- 83
2018-10-11 04:00:00 18.5 6 Oeste 16 Oeste 0 -- -- 82
2018-10-11 03:00:00 17.9 3 Sudoeste 9 Sudoeste 0 -- -- 84
2018-10-11 02:00:00 18.8 2 Sudoeste 9 Oeste 0 -- -- 79
2018-10-11 01:00:00 18.8 0 Calma 10 Norte 0 -- -- 79
2018-10-11 00:00:00 17.9 3 Sudoeste 9 Oeste 0 -- -- 79
2018-10-10 23:00:00 19.4 3 Noroeste 12 Noroeste 0 -- -- 75
2018-10-10 22:00:00 19.8 4 Oeste 16 Sudoeste 0 -- -- 72
2018-10-10 21:00:00 20.6 4 Oeste 14 Oeste 0 -- -- 67
2018-10-10 20:00:00 21.6 3 Oeste 16 Oeste 0 -- -- 60
2018-10-10 19:00:00 23.4 6 Oeste 22 Oeste 0 -- -- 55
2018-10-10 18:00:00 23.2 10 Oeste 23 Noroeste 0 -- -- 54
2018-10-10 17:00:00 23.6 7 Oeste 21 Oeste 0 -- -- 54
2018-10-10 16:00:00 23.7 6 Oeste 21 Oeste 0 -- -- 54
2018-10-10 15:00:00 22.8 9 Oeste 23 Oeste 0 -- -- 55
2018-10-10 14:00:00 21.7 7 Oeste 21 Sudoeste 0 -- -- 61
2018-10-10 13:00:00 21.6 5 Oeste 18 Sudoeste 0 -- -- 62
2018-10-10 12:00:00 19.4 6 Oeste 21 Oeste 0 -- -- 69
2018-10-10 11:00:00 17.6 5 Sur 18 Sur 0 -- -- 76
2018-10-10 10:00:00 16.3 7 Sur 21 Sur 0 -- -- 80
2018-10-10 09:00:00 15.6 8 Sur 14 Sur 0 -- -- 83
2018-10-10 08:00:00 15.3 7 Sur 14 Sur 0 -- -- 85
2018-10-10 07:00:00 15.6 6 Sur 13 Sur 0 -- -- 86
2018-10-10 06:00:00 15.9 6 Sur 13 Sur 0 -- -- 87
2018-10-10 05:00:00 16.7 8 Sur 14 Sur 0 -- -- 85
2018-10-10 04:00:00 17.3 4 Sudoeste 19 Noroeste 0 -- -- 82
2018-10-10 03:00:00 17.8 5 Oeste 16 Oeste 0 -- -- 83
2018-10-10 02:00:00 17.9 5 Oeste 15 Oeste 0 -- -- 83
2018-10-10 01:00:00 17.8 5 Oeste 18 Oeste 0 -- -- 80
2018-10-10 00:00:00 17.5 5 Sur 15 Sudoeste 0 -- -- 74
2018-10-09 23:00:00 18.4 6 Sudoeste 16 Sudoeste 0 -- -- 69
2018-10-09 22:00:00 19 5 Sudoeste 18 Sudoeste 0 -- -- 66
2018-10-09 21:00:00 17.3 0 Calma 6 Sur 0 -- -- 52
2018-10-09 20:00:00 21.6 0 Calma 17 Noroeste 0 -- -- 43
2018-10-09 19:00:00 24.5 8 Noroeste 19 Noroeste 0 -- -- 38
2018-10-09 18:00:00 24.7 5 Noroeste 22 Oeste 0 -- -- 37
2018-10-09 17:00:00 25.9 8 Oeste 23 Oeste 0 -- -- 34
2018-10-09 16:00:00 25.1 8 Noroeste 23 Oeste 0 -- -- 35
2018-10-09 15:00:00 24.5 10 Oeste 22 Noroeste 0 -- -- 44
2018-10-09 14:00:00 23.1 7 Sudoeste 19 Oeste 0 -- -- 47
2018-10-09 13:00:00 22.4 5 Sudoeste 17 Oeste 0 -- -- 51
2018-10-09 12:00:00 20.8 4 Oeste 10 Oeste 0 -- -- 52
2018-10-09 11:00:00 16 0 Calma 5 Norte 0 -- -- 59
2018-10-09 10:00:00 13.6 0 Calma 3 Sudoeste 0 -- -- 71
2018-10-09 09:00:00 9.3 0 Calma 3 Sudeste 0 -- -- 87
2018-10-09 08:00:00 9 0 Calma 3 Sur 0 -- -- 86
2018-10-09 07:00:00 8.9 0 Calma 3 Sudeste 0 -- -- 85
2018-10-09 06:00:00 9.6 0 Calma 4 Este 0 -- -- 83
2018-10-09 05:00:00 9.8 0 Calma 4 Norte 0 -- -- 82
2018-10-09 04:00:00 10.4 0 Calma 4 Noroeste 0 -- -- 79
2018-10-09 03:00:00 10.7 0 Calma 3 Nordeste 0 -- -- 74
2018-10-09 02:00:00 11.7 2 Sudeste 5 Sur 0 -- -- 69
2018-10-09 01:00:00 12.8 3 Sur 5 Sur 0 -- -- 66
2018-10-09 00:00:00 13.7 0 Calma 6 Este 0 -- -- 58
2018-10-08 23:00:00 15.2 2 Sudeste 7 Este 0 -- -- 50
2018-10-08 22:00:00 15.9 2 Sudeste 8 Sudeste 0 -- -- 42
2018-10-08 21:00:00 17.7 0 Calma 6 Sudeste 0 -- -- 43
2018-10-08 20:00:00 21.5 0 Calma 11 Oeste 0 -- -- 39
2018-10-08 19:00:00 25.3 6 Oeste 16 Noroeste 0 -- -- 32
2018-10-08 18:00:00 26.3 7 Oeste 15 Oeste 0 -- -- 29
2018-10-08 17:00:00 26 6 Noroeste 13 Oeste 0 -- -- 28
2018-10-08 16:00:00 25.7 4 Norte 14 Noroeste 0 -- -- 28
2018-10-08 15:00:00 24.7 6 Noroeste 16 Norte 0 -- -- 29
2018-10-08 14:00:00 23.9 7 Oeste 14 Oeste 0 -- -- 30
2018-10-08 13:00:00 22.7 4 Oeste 13 Oeste 0 -- -- 31
2018-10-08 12:00:00 20.4 3 Oeste 9 Oeste 0 -- -- 37
2018-10-08 11:00:00 17 0 Calma 4 Norte 0 -- -- 47
2018-10-08 10:00:00 12.8 2 Norte 4 Norte 0 -- -- 58
2018-10-08 09:00:00 7.6 0 Calma 5 Nordeste 0 -- -- 81
2018-10-08 08:00:00 7.6 3 Nordeste 4 Nordeste 0 -- -- 78
2018-10-08 07:00:00 8.4 0 Calma -- -- 0 -- -- 76
2018-10-08 06:00:00 8.7 4 Sur 5 Sur 0 -- -- 77
2018-10-08 05:00:00 9.6 0 Calma 5 Nordeste 0 -- -- 75
2018-10-08 04:00:00 10.8 0 Calma 4 Nordeste 0 -- -- 73
2018-10-08 03:00:00 11.6 0 Calma 4 Este 0 -- -- 66
2018-10-08 02:00:00 12.3 3 Sur 5 Sudeste 0 -- -- 56
2018-10-08 01:00:00 13.3 0 Calma 4 Nordeste 0 -- -- 52
2018-10-08 00:00:00 14.6 2 Nordeste 5 Este 0 -- -- 50
2018-10-07 23:00:00 17.8 4 Nordeste 9 Nordeste 0 -- -- 42
2018-10-07 22:00:00 19.5 5 Nordeste 12 Este 0 -- -- 39
2018-10-07 21:00:00 19.7 3 Nordeste 7 Nordeste 0 -- -- 41
2018-10-07 20:00:00 24.7 4 Nordeste 23 Norte 0 -- -- 32
2018-10-07 19:00:00 27.3 14 Norte 27 Norte 0 -- -- 27
2018-10-07 18:00:00 28.7 15 Norte 28 Norte 0 -- -- 25
2018-10-07 17:00:00 29.6 11 Nordeste 28 Norte 0 -- -- 23
2018-10-07 16:00:00 28.9 12 Nordeste 25 Norte 0 -- -- 26
2018-10-07 15:00:00 28.5 7 Noroeste 23 Norte 0 -- -- 28
2018-10-07 14:00:00 27.1 11 Norte 28 Noroeste 0 -- -- 29
2018-10-07 13:00:00 25.8 5 Norte 9 Norte 0 -- -- 33
2018-10-07 12:00:00 22.7 4 Oeste 9 Noroeste 0 -- -- 46
2018-10-07 11:00:00 19.7 3 Oeste 5 Norte 0 -- -- 53
2018-10-07 10:00:00 15.8 2 Norte 4 Noroeste 0 -- -- 69
2018-10-07 09:00:00 11.3 0 Calma 3 Sur 0 -- -- 90
2018-10-07 08:00:00 11.5 0 Calma 2 Sudeste 0 -- -- 87
2018-10-07 07:00:00 11.9 0 Calma 3 Sudeste 0 -- -- 85
2018-10-07 06:00:00 12.1 2 Este 3 Este 0 -- -- 81
2018-10-07 05:00:00 12.5 0 Calma 3 Este 0 -- -- 77
2018-10-07 04:00:00 13.3 0 Calma 4 Sur 0 -- -- 78
2018-10-07 03:00:00 14.2 0 Calma 4 Sudeste 0 -- -- 75
2018-10-07 02:00:00 15.1 0 Calma 3 Este 0 -- -- 69
2018-10-07 01:00:00 16.3 0 Calma 7 Norte 0 -- -- 60
2018-10-07 00:00:00 17.5 3 Sudeste 6 Sur 0 -- -- 55
2018-10-06 23:00:00 19.8 2 Sudeste 8 Noroeste 0 -- -- 47
2018-10-06 22:00:00 20.7 4 Sudoeste 12 Sudoeste 0 -- -- 45
2018-10-06 21:00:00 22.1 3 Sur 9 Noroeste 0 -- -- 41
2018-10-06 20:00:00 26.4 4 Oeste 15 Nordeste 0 -- -- 35
2018-10-06 19:00:00 29.3 8 Nordeste 19 Nordeste 0 -- -- 22
2018-10-06 18:00:00 30.1 10 Norte 22 Norte 0 -- -- 21
2018-10-06 17:00:00 30.5 6 Norte 17 Noroeste 0 -- -- 21
2018-10-06 16:00:00 30 5 Noroeste 13 Oeste 0 -- -- 24
2018-10-06 15:00:00 28.5 4 Nordeste 12 Sudoeste 0 -- -- 28
2018-10-06 14:00:00 27.3 5 Noroeste 14 Sudoeste 0 -- -- 32
2018-10-06 13:00:00 26.1 6 Noroeste 13 Oeste 0 -- -- 34
2018-10-06 12:00:00 24.6 4 Oeste 10 Sudoeste 0 -- -- 39
2018-10-06 11:00:00 20.5 3 Noroeste 5 Norte 0 -- -- 59
2018-10-06 10:00:00 16.6 0 Calma 2 Oeste 0 -- -- 74
2018-10-06 09:00:00 11 0 Calma 3 Sudoeste 0 -- -- 93
2018-10-06 08:00:00 10.9 0 Calma 3 Sur 0 -- -- 91
2018-10-06 07:00:00 11.4 0 Calma 3 Sudeste 0 -- -- 90
2018-10-06 06:00:00 11.8 2 Sudeste 3 Sudeste 0 -- -- 89
2018-10-06 05:00:00 12.4 0 Calma 3 Sur 0 -- -- 88
2018-10-06 04:00:00 12.6 2 Sur 4 Sudeste 0 -- -- 83
2018-10-06 03:00:00 13.4 0 Calma 3 Sudeste 0 -- -- 81
2018-10-06 02:00:00 14.1 0 Calma 2 Sudeste 0 -- -- 78
2018-10-06 01:00:00 14.7 0 Calma 3 Este 0 -- -- 68
2018-10-06 00:00:00 16.1 0 Calma 5 Este 0 -- -- 60
2018-10-05 23:00:00 17.2 3 Sudoeste 6 Oeste 0 -- -- 51
2018-10-05 22:00:00 17.7 0 Calma 3 Este 0 -- -- 46
2018-10-05 21:00:00 19.8 0 Calma 4 Sur 0 -- -- 40
2018-10-05 20:00:00 25.3 4 Sudoeste 15 Oeste 0 -- -- 32
2018-10-05 19:00:00 28.3 5 Oeste 15 Sudoeste 0 -- -- 30
2018-10-05 18:00:00 29.4 5 Sudoeste 16 Sudoeste 0 -- -- 26
2018-10-05 17:00:00 30.2 7 Oeste 17 Oeste 0 -- -- 24
2018-10-05 16:00:00 30 8 Oeste 16 Oeste 0 -- -- 24
2018-10-05 15:00:00 29.4 6 Sudoeste 15 Oeste 0 -- -- 25
2018-10-05 14:00:00 28.3 5 Oeste 14 Oeste 0 -- -- 27
2018-10-05 13:00:00 26.8 7 Oeste 15 Oeste 0 -- -- 28
2018-10-05 12:00:00 24.9 4 Sudoeste 10 Sudoeste 0 -- -- 33
2018-10-05 11:00:00 21.5 0 Calma 4 Oeste 0 -- -- 53
2018-10-05 10:00:00 16.5 0 Calma 3 Sur 0 -- -- 72
2018-10-05 09:00:00 11.6 2 Sur 3 Sur 0 -- -- 89
2018-10-05 08:00:00 11.3 0 Calma 12 Sur 0 -- -- 83
2018-10-05 07:00:00 12 8 Sur 12 Sur 0 -- -- 84
2018-10-05 06:00:00 11.9 0 Calma 3 Sudeste 0 -- -- 86
2018-10-05 05:00:00 12.3 0 Calma 3 Sur 0 -- -- 81
2018-10-05 04:00:00 13 0 Calma 2 Sur 0 -- -- 79
2018-10-05 03:00:00 13.6 2 Sur 6 Sur 0 -- -- 72
2018-10-05 02:00:00 14.3 0 Calma 3 Nordeste 0 -- -- 62
2018-10-05 01:00:00 15.4 0 Calma 5 Sur 0 -- -- 54
2018-10-05 00:00:00 16.8 3 Sudeste 7 Norte 0 -- -- 51
2018-10-04 23:00:00 19.6 0 Calma 9 Sudeste 0 -- -- 42
2018-10-04 22:00:00 20.3 4 Sur 8 Sudoeste 0 -- -- 40
2018-10-04 21:00:00 20.7 5 Sur 8 Oeste 0 -- -- 40
2018-10-04 20:00:00 26 4 Sudoeste 17 Noroeste 0 -- -- 32
2018-10-04 19:00:00 28.7 7 Oeste 17 Oeste 0 -- -- 29
2018-10-04 18:00:00 29.7 6 Oeste 13 Oeste 0 -- -- 27
2018-10-04 17:00:00 29.5 5 Sudoeste 15 Sudoeste 0 -- -- 27
2018-10-04 16:00:00 29.6 4 Noroeste 13 Noroeste 0 -- -- 26
2018-10-04 15:00:00 28.5 4 Noroeste 12 Noroeste 0 -- -- 28
2018-10-04 14:00:00 27.4 6 Sudoeste 14 Oeste 0 -- -- 31
2018-10-04 13:00:00 26.3 6 Oeste 17 Oeste 0 -- -- 35
2018-10-04 12:00:00 25 7 Oeste 18 Oeste 0 -- -- 37
2018-10-04 11:00:00 21.7 3 Sur 7 Sudoeste 0 -- -- 49
2018-10-04 10:00:00 16.7 0 Calma 2 Noroeste 0 -- -- 78
2018-10-04 09:00:00 11.8 0 Calma 3 Sur 0 -- -- 93
2018-10-04 08:00:00 11.1 0 Calma 4 Este 0 -- -- 90
2018-10-04 07:00:00 11.2 2 Sudeste 3 Sur 0 -- -- 89
2018-10-04 06:00:00 11.8 0 Calma 3 Sur 0 -- -- 88
2018-10-04 05:00:00 12.2 0 Calma 3 Sur 0 -- -- 86
2018-10-04 04:00:00 12.4 0 Calma 2 Este 0 -- -- 84
2018-10-04 03:00:00 13 0 Calma 3 Sur 0 -- -- 81
2018-10-04 02:00:00 13.6 0 Calma 5 Sur 0 -- -- 76
2018-10-04 01:00:00 14.5 0 Calma 4 Noroeste 0 -- -- 70
2018-10-04 00:00:00 15 0 Calma 4 Este 0 -- -- 64
2018-10-03 23:00:00 16 3 Este 6 Este 0 -- -- 57
2018-10-03 22:00:00 17.8 0 Calma 12 Nordeste 0 -- -- 47
2018-10-03 21:00:00 19.7 4 Sudeste 6 Sudeste 0 -- -- 39
2018-10-03 20:00:00 25.6 2 Sudoeste 14 Noroeste 0 -- -- 30
2018-10-03 19:00:00 29.1 5 Oeste 12 Oeste 0 -- -- 27
2018-10-03 18:00:00 30 5 Oeste 17 Sudoeste 0 -- -- 23
2018-10-03 17:00:00 30.3 6 Oeste 18 Oeste 0 -- -- 23
2018-10-03 16:00:00 30.1 7 Oeste 13 Oeste 0 -- -- 22
2018-10-03 15:00:00 29.1 8 Oeste 18 Noroeste 0 -- -- 25
2018-10-03 14:00:00 27.7 6 Oeste 17 Sudoeste 0 -- -- 28
2018-10-03 13:00:00 25.2 5 Noroeste 11 Oeste 0 -- -- 40
2018-10-03 12:00:00 22.4 4 Oeste 8 Oeste 0 -- -- 57
2018-10-03 11:00:00 18.8 2 Sudoeste 6 Oeste 0 -- -- 53
2018-10-03 10:00:00 15.1 0 Calma 2 Oeste 0 -- -- 62
2018-10-03 09:00:00 9.6 2 Sur 3 Sur 0 -- -- 82
2018-10-03 08:00:00 8.8 0 Calma 3 Nordeste 0 -- -- 78
2018-10-03 07:00:00 9 0 Calma 3 Sur 0 -- -- 76
2018-10-03 06:00:00 9 2 Sudeste 4 Sudeste 0 -- -- 78
2018-10-03 05:00:00 9.4 0 Calma 3 Sur 0 -- -- 75
2018-10-03 04:00:00 9.9 0 Calma 2 Sur 0 -- -- 73
2018-10-03 03:00:00 10.5 0 Calma 3 Sur 0 -- -- 67
2018-10-03 02:00:00 11.4 0 Calma 3 Sudoeste 0 -- -- 64
2018-10-03 01:00:00 12.2 0 Calma 2 Sur 0 -- -- 59
2018-10-03 00:00:00 13.4 2 Sur 5 Sur 0 -- -- 51
2018-10-02 23:00:00 15.5 2 Sur 8 Sudeste 0 -- -- 41
2018-10-02 22:00:00 19.4 3 Sur 14 Sudeste 0 -- -- 30
2018-10-02 21:00:00 18.6 0 Calma 8 Este 0 -- -- 25
2018-10-02 20:00:00 25.5 3 Este 16 Este 0 -- -- 17
2018-10-02 19:00:00 28.5 7 Este 19 Este 0 -- -- 11
2018-10-02 18:00:00 29.4 10 Este 26 Nordeste 0 -- -- 9
2018-10-02 17:00:00 29.5 9 Este 24 Nordeste 0 -- -- 9
2018-10-02 16:00:00 29.7 8 Nordeste 25 Norte 0 -- -- 12
2018-10-02 15:00:00 28.8 9 Nordeste 30 Sudeste 0 -- -- 14
2018-10-02 14:00:00 27.8 8 Norte 18 Norte 0 -- -- 16
2018-10-02 13:00:00 25.8 9 Noroeste 16 Norte 0 -- -- 24
2018-10-02 12:00:00 22.8 4 Oeste 8 Oeste 0 -- -- 39
2018-10-02 11:00:00 19.3 3 Oeste 8 Norte 0 -- -- 50
2018-10-02 10:00:00 16 0 Calma 5 Noroeste 0 -- -- 57
2018-10-02 09:00:00 9.9 2 Nordeste 5 Nordeste 0 -- -- 84
2018-10-02 08:00:00 9.8 0 Calma 5 Sur 0 -- -- 86
2018-10-02 07:00:00 10.4 3 Sur 5 Sudeste 0 -- -- 85
2018-10-02 06:00:00 11.2 0 Calma 4 Nordeste 0 -- -- 83
2018-10-02 05:00:00 11.8 0 Calma 3 Sudeste 0 -- -- 82
2018-10-02 04:00:00 12.8 0 Calma 3 Sudeste 0 -- -- 81
2018-10-02 03:00:00 13.8 0 Calma 4 Sudeste 0 -- -- 77
2018-10-02 02:00:00 14.8 3 Sur 5 Noroeste 0 -- -- 69
2018-10-02 01:00:00 16.2 4 Sudeste 8 Sudeste 0 -- -- 64
2018-10-02 00:00:00 17.3 3 Noroeste 5 Noroeste 0 -- -- 73
2018-10-01 23:00:00 17.7 0 Calma 4 Sudeste 0 -- -- 74
2018-10-01 22:00:00 19.3 0 Calma 6 Este 0 -- -- 65
2018-10-01 21:00:00 21.7 0 Calma 6 Sur 0 -- -- 57
2018-10-01 20:00:00 25.8 3 Sudeste 10 Sur 0 -- -- 48
2018-10-01 19:00:00 28.8 4 Oeste 22 Nordeste 0 -- -- 40
2018-10-01 18:00:00 30.6 8 Norte 22 Norte 0 -- -- 24
2018-10-01 17:00:00 31.2 13 Norte 26 Norte 0 -- -- 26
2018-10-01 16:00:00 30.2 5 Sudeste 15 Oeste 0 -- -- 31
2018-10-01 15:00:00 30.1 8 Oeste 14 Oeste 0 -- -- 35
2018-10-01 14:00:00 28.5 5 Oeste 12 Noroeste 0 -- -- 38
2018-10-01 13:00:00 25.9 5 Oeste 9 Noroeste 0 -- -- 46
2018-10-01 12:00:00 22.3 4 Norte 8 Noroeste 0 -- -- 61
2018-10-01 11:00:00 21.1 0 Calma 5 Oeste 0 -- -- 70
2018-10-01 10:00:00 18.1 0 Calma 3 Oeste 0 -- -- 82
2018-10-01 09:00:00 14.5 0 Calma 3 Sur 0 -- -- 93
2018-10-01 08:00:00 14.5 0 Calma 4 Nordeste 0 -- -- 91
2018-10-01 07:00:00 14.7 0 Calma 3 Sudeste 0 -- -- 89
2018-10-01 06:00:00 15.2 2 Sudeste 3 Sur 0 -- -- 88
2018-10-01 05:00:00 16.5 0 Calma 3 Norte 0 -- -- 86
2018-10-01 04:00:00 16 0 Calma 3 Este 0 -- -- 85
2018-10-01 03:00:00 17 0 Calma 4 Nordeste 0 -- -- 81
2018-10-01 02:00:00 17.8 3 Nordeste 5 Nordeste 0 -- -- 78
2018-10-01 01:00:00 18.1 0 Calma 4 Nordeste 0 -- -- 74
2018-10-01 00:00:00 19.3 0 Calma 4 Norte 0 -- -- 70
2018-09-30 23:00:00 20.6 3 Nordeste 6 Este 0 -- -- 66
2018-09-30 22:00:00 21.2 3 Este 5 Este 0 -- -- 63
2018-09-30 21:00:00 22.8 4 Norte 7 Nordeste 0 -- -- 57
2018-09-30 20:00:00 23.8 4 Este 12 Noroeste 0 -- -- 53
2018-09-30 19:00:00 25.7 5 Noroeste 13 Este 0 -- -- 49
2018-09-30 18:00:00 29.3 10 Norte 19 Norte 0 -- -- 37
2018-09-30 17:00:00 29.3 4 Nordeste 16 Noroeste 0 -- -- 42
2018-09-30 16:00:00 28.8 7 Oeste 15 Noroeste 0 -- -- 45
2018-09-30 15:00:00 28.6 8 Oeste 19 Oeste 0 -- -- 45
2018-09-30 14:00:00 28.4 4 Sudoeste 11 Sudoeste 0 -- -- 46
2018-09-30 13:00:00 27.1 6 Oeste 14 Sur 0 -- -- 50
2018-09-30 12:00:00 25.2 3 Oeste 8 Oeste 0 -- -- 55
2018-09-30 11:00:00 22.6 3 Sudoeste 8 Sudoeste 0 -- -- 64
2018-09-30 10:00:00 19 0 Calma 4 Oeste 0 -- -- 81
2018-09-30 09:00:00 15.2 0 Calma 4 Sur 0 -- -- 95
2018-09-30 08:00:00 14.7 2 Sur 4 Sur 0 -- -- 94
2018-09-30 07:00:00 14.9 0 Calma 2 Este 0 -- -- 93
2018-09-30 06:00:00 15.1 0 Calma 2 Este 0 -- -- 92
2018-09-30 05:00:00 15.1 0 Calma 3 Este 0 -- -- 90
2018-09-30 04:00:00 15.4 3 Sur 4 Sur 0 -- -- 89
2018-09-30 03:00:00 16.1 0 Calma 2 Nordeste 0 -- -- 88
2018-09-30 02:00:00 16.7 0 Calma 3 Sudeste 0 -- -- 86
2018-09-30 01:00:00 17.4 0 Calma 3 Nordeste 0 -- -- 81
2018-09-30 00:00:00 18.1 2 Este 5 Nordeste 0 -- -- 76
2018-09-29 23:00:00 19.3 2 Nordeste 6 Nordeste 0 -- -- 68
2018-09-29 22:00:00 20.5 2 Este 4 Sudeste 0 -- -- 61
2018-09-29 21:00:00 23.2 3 Sur 11 Sudoeste 0 -- -- 54
2018-09-29 20:00:00 26.7 4 Oeste 17 Noroeste 0 -- -- 45
2018-09-29 19:00:00 29.2 8 Oeste 13 Oeste 0 -- -- 39
2018-09-29 18:00:00 30 4 Oeste 12 Sudoeste 0 -- -- 37
2018-09-29 17:00:00 30.2 6 Noroeste 13 Oeste 0 -- -- 36
2018-09-29 16:00:00 28.9 6 Noroeste 15 Noroeste 0 -- -- 39
2018-09-29 15:00:00 28.9 7 Oeste 12 Noroeste 0 -- -- 37
2018-09-29 14:00:00 27.5 5 Oeste 12 Oeste 0 -- -- 44
2018-09-29 13:00:00 26.1 5 Oeste 12 Oeste 0 -- -- 51
2018-09-29 12:00:00 24 5 Oeste 9 Oeste 0 -- -- 58
2018-09-29 11:00:00 21.7 4 Sudoeste 9 Sur 0 -- -- 69
2018-09-29 10:00:00 18.4 0 Calma 2 Sur 0 -- -- 88
2018-09-29 09:00:00 14.6 0 Calma 2 Este 0 -- -- 96
2018-09-29 08:00:00 13.8 0 Calma 3 Este 0 -- -- 94
2018-09-29 07:00:00 13.9 2 Este 3 Este 0 -- -- 94
2018-09-29 06:00:00 14.2 2 Sur 2 Sur 0 -- -- 94
2018-09-29 05:00:00 14.6 0 Calma 2 Este 0 -- -- 93
2018-09-29 04:00:00 14.8 3 Sur 4 Sur 0 -- -- 92
2018-09-29 03:00:00 15.3 0 Calma 3 Nordeste 0 -- -- 91
2018-09-29 02:00:00 15.5 3 Nordeste 5 Nordeste 0 -- -- 88
2018-09-29 01:00:00 15.9 2 Sur 3 Sur 0 -- -- 86
2018-09-29 00:00:00 16.8 2 Este 6 Norte 0 -- -- 82
2018-09-28 23:00:00 17.8 0 Calma 3 Este 0 -- -- 79
2018-09-28 22:00:00 19.1 2 Este 4 Nordeste 0 -- -- 71
2018-09-28 21:00:00 21.7 0 Calma 8 Sudoeste 0 -- -- 61
2018-09-28 20:00:00 26 4 Oeste 14 Sudoeste 0 -- -- 51
2018-09-28 19:00:00 28.6 5 Sudoeste 20 Sur 0 -- -- 40
2018-09-28 18:00:00 29.3 5 Norte 22 Sudeste 0 -- -- 30
2018-09-28 17:00:00 29.1 6 Este 22 Este 0 -- -- 31
2018-09-28 16:00:00 28.8 6 Sudoeste 18 Este 0 -- -- 31
2018-09-28 15:00:00 28.2 7 Oeste 15 Norte 0 -- -- 36
2018-09-28 14:00:00 26.7 6 Este 15 Sudeste 0 -- -- 40
2018-09-28 13:00:00 25.5 5 Noroeste 12 Noroeste 0 -- -- 52
2018-09-28 12:00:00 24.1 5 Oeste 16 Oeste 0 -- -- 58
2018-09-28 11:00:00 22.2 3 Sur 7 Sur 0 -- -- 68
2018-09-28 10:00:00 18.7 0 Calma 5 Noroeste 0 -- -- 83
2018-09-28 09:00:00 15.1 0 Calma 4 Nordeste 0 -- -- 95
2018-09-28 08:00:00 14.5 0 Calma 2 Sudeste 0 -- -- 93
2018-09-28 07:00:00 14.7 0 Calma 3 Este 0 -- -- 92
2018-09-28 06:00:00 15 0 Calma 4 Sudeste 0 -- -- 91
2018-09-28 05:00:00 15.4 0 Calma 3 Este 0 -- -- 89
2018-09-28 04:00:00 15.7 0 Calma 4 Nordeste 0 -- -- 86
2018-09-28 03:00:00 16.2 0 Calma 4 Este 0 -- -- 82
2018-09-28 02:00:00 17.3 0 Calma 7 Noroeste 0 -- -- 78
2018-09-28 01:00:00 18.7 4 Este 8 Este 0 -- -- 67
2018-09-28 00:00:00 20.6 3 Sudeste 17 Este 0 -- -- 63
2018-09-27 23:00:00 24.1 8 Sudeste 18 Sudeste 0 -- -- 44
2018-09-27 22:00:00 23 5 Sudeste 10 Sudeste 0 -- -- 51
2018-09-27 21:00:00 22.1 3 Este 6 Sudeste 0 -- -- 59
2018-09-27 20:00:00 26.1 4 Este 9 Sudeste 0 -- -- 49
2018-09-27 19:00:00 27.6 5 Sur 17 Sur 0 -- -- 43
2018-09-27 18:00:00 28.9 6 Sur 15 Sur 0 -- -- 40
2018-09-27 17:00:00 28.8 4 Oeste 12 Sur 0 -- -- 41
2018-09-27 16:00:00 27.8 5 Sur 22 Sur 0 -- -- 43
2018-09-27 15:00:00 28.1 8 Sudoeste 21 Oeste 0 -- -- 43
2018-09-27 14:00:00 27.9 9 Sudoeste 30 Sur 0 -- -- 43
2018-09-27 13:00:00 26.5 12 Sur 23 Sudoeste 0 -- -- 48
2018-09-27 12:00:00 25 14 Sur 25 Sur 0 -- -- 55
2018-09-27 11:00:00 23.2 7 Sur 18 Sur 0 -- -- 63
2018-09-27 10:00:00 19.1 3 Norte 7 Norte 0 -- -- 87
2018-09-27 09:00:00 16.5 0 Calma 5 Nordeste 0 -- -- 96
2018-09-27 08:00:00 16 0 Calma 4 Nordeste 0 -- -- 95
2018-09-27 07:00:00 16.1 0 Calma 5 Este 0.2 -- -- 95
2018-09-27 06:00:00 16.5 0 Calma 4 Sudeste 0 -- -- 95
2018-09-27 05:00:00 17 0 Calma 4 Norte 0 -- -- 95
2018-09-27 04:00:00 17 0 Calma 4 Nordeste 0 -- -- 94
2018-09-27 03:00:00 17.3 0 Calma 3 Sudeste 0 -- -- 94
2018-09-27 02:00:00 17.8 2 Sudeste 4 Sudeste 0 -- -- 93
2018-09-27 01:00:00 18.1 0 Calma 6 Sudeste 0 -- -- 92
2018-09-27 00:00:00 18.5 3 Este 5 Este 0 -- -- 90
2018-09-26 23:00:00 19.8 2 Nordeste 10 Nordeste 0 -- -- 89
2018-09-26 22:00:00 19.8 3 Sur 9 Nordeste 0.2 -- -- 90
2018-09-26 21:00:00 19.4 4 Nordeste 9 Nordeste 1 -- -- 86
2018-09-26 20:00:00 19.5 5 Sudeste 16 Sudeste 0.2 -- -- 84
2018-09-26 19:00:00 19.3 9 Sudeste 52 Sudeste 8.2 -- -- 79
2018-09-26 18:00:00 27.4 22 Sudeste 47 Este 0 -- -- 41
2018-09-26 17:00:00 30.5 6 Sudoeste 15 Sur 0 -- -- 42
2018-09-26 16:00:00 30.3 8 Sur 18 Sur 0 -- -- 41
2018-09-26 15:00:00 30.7 7 Oeste 27 Sur 0 -- -- 44
2018-09-26 14:00:00 28.5 9 Sudoeste 28 Sudoeste 0 -- -- 49
2018-09-26 13:00:00 27.9 10 Sur 22 Sur 0 -- -- 52
2018-09-26 12:00:00 26.5 9 Oeste 19 Noroeste 0 -- -- 58
2018-09-26 11:00:00 24.8 6 Sudoeste 20 Sudoeste 0 -- -- 65
2018-09-26 10:00:00 23.6 6 Sudoeste 20 Sur 0 -- -- 71
2018-09-26 09:00:00 21.5 6 Sur 12 Sur 0 -- -- 78
2018-09-26 08:00:00 20.8 5 Sur 10 Sur 0 -- -- 79
2018-09-26 07:00:00 20.4 3 Sur 10 Sur 0 -- -- 79
2018-09-26 06:00:00 19.5 3 Sur 5 Oeste 0 -- -- 78
2018-09-26 05:00:00 21.3 4 Sur 14 Sudoeste 0 -- -- 71
2018-09-26 04:00:00 21.5 4 Sudoeste 15 Oeste 0 -- -- 69
2018-09-26 03:00:00 21.5 6 Sur 13 Sudeste 0 -- -- 63
2018-09-26 02:00:00 23.1 4 Sur 11 Noroeste 0 -- -- 54
2018-09-26 01:00:00 21 4 Sur 6 Sur 0 -- -- 57
2018-09-26 00:00:00 22 3 Sur 7 Sur 0 -- -- 54
2018-09-25 23:00:00 25.4 3 Sudoeste 17 Oeste 0 -- -- 45
2018-09-25 22:00:00 24.7 4 Sudoeste 13 Oeste 0 -- -- 44
2018-09-25 21:00:00 25.4 4 Sur 6 Sur 0 -- -- 41
2018-09-25 20:00:00 30.8 0 Calma 17 Oeste 0 -- -- 33
2018-09-25 19:00:00 33.1 6 Oeste 21 Oeste 0 -- -- 29
2018-09-25 18:00:00 34.1 8 Oeste 17 Noroeste 0 -- -- 28
2018-09-25 17:00:00 34.2 7 Oeste 22 Oeste 0 -- -- 26
2018-09-25 16:00:00 34.4 8 Oeste 19 Oeste 0 -- -- 27
2018-09-25 15:00:00 33.9 8 Oeste 22 Sudoeste 0 -- -- 26
2018-09-25 14:00:00 33.3 7 Oeste 15 Oeste 0 -- -- 27
2018-09-25 13:00:00 31.8 5 Oeste 13 Oeste 0 -- -- 30
2018-09-25 12:00:00 30.2 5 Sudoeste 11 Oeste 0 -- -- 32
2018-09-25 11:00:00 26.2 2 Sudoeste 5 Sudoeste 0 -- -- 54
2018-09-25 10:00:00 22.1 2 Oeste 4 Oeste 0 -- -- 66
2018-09-25 09:00:00 17.1 0 Calma 3 Nordeste 0 -- -- 85
2018-09-25 08:00:00 15.9 2 Nordeste 5 Sur 0 -- -- 79
2018-09-25 07:00:00 16.3 2 Sur 4 Sur 0 -- -- 79
2018-09-25 06:00:00 16.9 2 Nordeste 4 Este 0 -- -- 74
2018-09-25 05:00:00 17.9 3 Este 5 Sur 0 -- -- 68
2018-09-25 04:00:00 18.5 0 Calma 4 Sudeste 0 -- -- 65
2018-09-25 03:00:00 19.5 0 Calma 4 Sudoeste 0 -- -- 56
2018-09-25 02:00:00 21.4 4 Sur 7 Sur 0 -- -- 46
2018-09-25 01:00:00 23.2 3 Sudoeste 9 Sudoeste 0 -- -- 41
2018-09-25 00:00:00 21.3 0 Calma 5 Norte 0 -- -- 49
2018-09-24 23:00:00 22.4 2 Sur 6 Este 0 -- -- 50
2018-09-24 22:00:00 24.3 6 Nordeste 8 Norte 0 -- -- 43
2018-09-24 21:00:00 26.2 3 Sudeste 5 Sudeste 0 -- -- 39
2018-09-24 20:00:00 32 3 Sudoeste 11 Sudoeste 0 -- -- 33
2018-09-24 19:00:00 34.8 4 Oeste 13 Oeste 0 -- -- 27
2018-09-24 18:00:00 35.6 8 Oeste 13 Noroeste 0 -- -- 26
2018-09-24 17:00:00 36.2 6 Oeste 21 Sur 0 -- -- 25
2018-09-24 16:00:00 35.8 7 Oeste 17 Sur 0 -- -- 25
2018-09-24 15:00:00 34.8 10 Sur 22 Oeste 0 -- -- 26
2018-09-24 14:00:00 34.6 8 Oeste 20 Oeste 0 -- -- 27
2018-09-24 13:00:00 32.6 4 Sudoeste 10 Oeste 0 -- -- 28
2018-09-24 12:00:00 30 4 Oeste 6 Sudoeste 0 -- -- 31
2018-09-24 11:00:00 25.5 2 Noroeste 5 Oeste 0 -- -- 53
2018-09-24 10:00:00 21.5 0 Calma 4 Sudoeste 0 -- -- 68
2018-09-24 09:00:00 16.7 0 Calma 3 Sur 0 -- -- 88
2018-09-24 08:00:00 15.7 0 Calma 3 Este 0 -- -- 87
2018-09-24 07:00:00 16.1 2 Sur 3 Sur 0 -- -- 86
2018-09-24 06:00:00 16.5 2 Nordeste 4 Sudeste 0 -- -- 83
2018-09-24 05:00:00 17.1 2 Sur 4 Sur 0 -- -- 81
2018-09-24 04:00:00 17.8 0 Calma 4 Nordeste 0 -- -- 79
2018-09-24 03:00:00 18.4 4 Nordeste 5 Nordeste 0 -- -- 70
2018-09-24 02:00:00 19.2 0 Calma 3 Sur 0 -- -- 70
2018-09-24 01:00:00 20.1 0 Calma 6 Nordeste 0 -- -- 63
2018-09-24 00:00:00 21.4 3 Norte 5 Nordeste 0 -- -- 54
2018-09-23 23:00:00 23.3 3 Sudeste 13 Sudoeste 0 -- -- 56
2018-09-23 22:00:00 24 0 Calma 9 Noroeste 0 -- -- 47
2018-09-23 21:00:00 26.6 3 Sudeste 8 Norte 0 -- -- 39
2018-09-23 20:00:00 31.6 2 Sur 12 Sur 0 -- -- 33
2018-09-23 19:00:00 33.7 5 Sudoeste 17 Sur 0 -- -- 28
2018-09-23 18:00:00 35.2 6 Sudoeste 17 Sudoeste 0 -- -- 28
2018-09-23 17:00:00 34.5 8 Sur 26 Sudoeste 0 -- -- 27
2018-09-23 16:00:00 35.2 9 Sudoeste 24 Sudoeste 0 -- -- 27
2018-09-23 15:00:00 34.7 8 Sur 22 Sur 0 -- -- 28
2018-09-23 14:00:00 33.9 6 Oeste 16 Oeste 0 -- -- 27
2018-09-23 13:00:00 31.6 7 Noroeste 11 Oeste 0 -- -- 30
2018-09-23 12:00:00 30 4 Oeste 8 Oeste 0 -- -- 31
2018-09-23 11:00:00 25.9 0 Calma 4 Oeste 0 -- -- 43
2018-09-23 10:00:00 21.5 3 Noroeste 5 Noroeste 0 -- -- 68
2018-09-23 09:00:00 17.1 0 Calma 3 Sur 0 -- -- 86
2018-09-23 08:00:00 15.9 0 Calma 3 Sudeste 0 -- -- 87
2018-09-23 07:00:00 16.3 0 Calma 3 Norte 0 -- -- 84
2018-09-23 06:00:00 17 0 Calma 2 Nordeste 0 -- -- 83
2018-09-23 05:00:00 17.5 0 Calma 4 Sudeste 0 -- -- 77
2018-09-23 04:00:00 18.2 0 Calma 5 Nordeste 0 -- -- 75
2018-09-23 03:00:00 19.3 3 Este 6 Oeste 0 -- -- 72
2018-09-23 02:00:00 19 2 Sudeste 4 Sudeste 0 -- -- 73
2018-09-23 01:00:00 20 0 Calma 4 Nordeste 0 -- -- 68
2018-09-23 00:00:00 20.9 0 Calma 5 Nordeste 0 -- -- 55
2018-09-22 23:00:00 22.6 3 Sur 13 Sudeste 0 -- -- 57
2018-09-22 22:00:00 23.2 0 Calma 4 Nordeste 0 -- -- 51
2018-09-22 21:00:00 26.6 2 Norte 6 Sudeste 0 -- -- 39
2018-09-22 20:00:00 31.4 4 Sur 10 Sudoeste 0 -- -- 33
2018-09-22 19:00:00 34.1 5 Sudoeste 17 Sur 0 -- -- 27
2018-09-22 18:00:00 34.6 6 Sudoeste 15 Oeste 0 -- -- 27
2018-09-22 17:00:00 34.6 5 Sudoeste 21 Sudoeste 0 -- -- 27
2018-09-22 16:00:00 34.7 6 Sudoeste 20 Sur 0 -- -- 27
2018-09-22 15:00:00 34.3 9 Sudoeste 18 Sudeste 0 -- -- 28
2018-09-22 14:00:00 33.2 8 Sur 18 Este 0 -- -- 31
2018-09-22 13:00:00 32 4 Oeste 8 Sudoeste 0 -- -- 36
2018-09-22 12:00:00 28.4 5 Oeste 7 Oeste 0 -- -- 47
2018-09-22 11:00:00 24.4 2 Oeste 5 Oeste 0 -- -- 62
2018-09-22 10:00:00 21.2 0 Calma 4 Sudoeste 0 -- -- 71
2018-09-22 09:00:00 17 0 Calma 3 Sur 0 -- -- 91
2018-09-22 08:00:00 15.8 0 Calma 3 Norte 0 -- -- 90
2018-09-22 07:00:00 16.2 0 Calma 2 Sudeste 0 -- -- 89
2018-09-22 06:00:00 16.6 2 Este 3 Este 0 -- -- 87
2018-09-22 05:00:00 17 0 Calma 4 Sur 0 -- -- 86
2018-09-22 04:00:00 17.5 0 Calma 2 Sur 0 -- -- 84
2018-09-22 03:00:00 18.1 2 Sur 4 Sur 0 -- -- 81
2018-09-22 02:00:00 18.7 0 Calma 2 Nordeste 0 -- -- 77
2018-09-22 01:00:00 19.5 0 Calma 5 Sur 0 -- -- 69
2018-09-22 00:00:00 20.5 0 Calma 6 Nordeste 0 -- -- 65
2018-09-21 23:00:00 21.6 0 Calma 3 Norte 0 -- -- 60
2018-09-21 22:00:00 23.2 2 Nordeste 6 Norte 0 -- -- 55
2018-09-21 21:00:00 25.1 3 Nordeste 8 Sur 0 -- -- 47
2018-09-21 20:00:00 30 3 Sur 10 Sudoeste 0 -- -- 37
2018-09-21 19:00:00 32.7 4 Oeste 14 Sur 0 -- -- 31
2018-09-21 18:00:00 33 6 Oeste 18 Sur 0 -- -- 28
2018-09-21 17:00:00 32.9 5 Noroeste 18 Oeste 0 -- -- 30
2018-09-21 16:00:00 32.2 5 Oeste 21 Sur 0 -- -- 33
2018-09-21 15:00:00 32.3 7 Oeste 19 Oeste 0 -- -- 36
2018-09-21 14:00:00 31.2 5 Sudoeste 13 Oeste 0 -- -- 41
2018-09-21 13:00:00 29.7 6 Oeste 11 Noroeste 0 -- -- 43
2018-09-21 12:00:00 27.3 5 Oeste 9 Oeste 0 -- -- 55
2018-09-21 11:00:00 24.1 2 Oeste 6 Oeste 0 -- -- 71
2018-09-21 10:00:00 21.2 2 Oeste 4 Sudoeste 0 -- -- 81
2018-09-21 09:00:00 17.8 0 Calma 3 Sur 0 -- -- 94
2018-09-21 08:00:00 16.7 2 Sur 3 Sur 0 -- -- 92
2018-09-21 07:00:00 16.9 0 Calma 2 Este 0 -- -- 91
2018-09-21 06:00:00 17.1 0 Calma 3 Sudeste 0 -- -- 90
2018-09-21 05:00:00 17.4 0 Calma 5 Sur 0 -- -- 88
2018-09-21 04:00:00 17.8 0 Calma 4 Nordeste 0 -- -- 85
2018-09-21 03:00:00 18 0 Calma 3 Este 0 -- -- 83
2018-09-21 02:00:00 18.5 0 Calma 3 Este 0 -- -- 79
2018-09-21 01:00:00 19 3 Sur 6 Nordeste 0 -- -- 75
2018-09-21 00:00:00 19.8 3 Nordeste 5 Nordeste 0 -- -- 69
2018-09-20 23:00:00 20.8 0 Calma 4 Nordeste 0 -- -- 65
2018-09-20 22:00:00 22.2 0 Calma 4 Nordeste 0 -- -- 59
2018-09-20 21:00:00 24.5 0 Calma 7 Oeste 0 -- -- 50
2018-09-20 20:00:00 28.9 4 Oeste 12 Oeste 0 -- -- 38
2018-09-20 19:00:00 31.1 4 Sudoeste 15 Oeste 0 -- -- 32
2018-09-20 18:00:00 30.6 4 Oeste 18 Oeste 0 -- -- 37
2018-09-20 17:00:00 32.3 9 Oeste 19 Noroeste 0 -- -- 37
2018-09-20 16:00:00 31.7 5 Sudoeste 20 Sur 0 -- -- 37
2018-09-20 15:00:00 31.2 6 Oeste 19 Noroeste 0 -- -- 39
2018-09-20 14:00:00 30.1 5 Oeste 14 Sur 0 -- -- 44
2018-09-20 13:00:00 28.9 5 Sudoeste 15 Sur 0 -- -- 49
2018-09-20 12:00:00 27.5 4 Oeste 13 Oeste 0 -- -- 54
2018-09-20 11:00:00 25.3 3 Oeste 9 Sur 0 -- -- 61
2018-09-20 10:00:00 22.4 0 Calma 4 Sur 0 -- -- 75
2018-09-20 09:00:00 18.5 0 Calma 3 Oeste 0 -- -- 91
2018-09-20 08:00:00 17.6 0 Calma 3 Sur 0 -- -- 89
2018-09-20 07:00:00 18.9 0 Calma 7 Sur 0 -- -- 86
2018-09-20 06:00:00 18.1 4 Sur 7 Sur 0 -- -- 90
2018-09-20 05:00:00 17.9 0 Calma 3 Sudeste 0 -- -- 88
2018-09-20 04:00:00 18.3 0 Calma 4 Sur 0 -- -- 86
2018-09-20 03:00:00 18.8 0 Calma 4 Sudeste 0 -- -- 83
2018-09-20 02:00:00 19.3 3 Este 4 Nordeste 0 -- -- 78
2018-09-20 01:00:00 19.8 0 Calma 4 Sudeste 0 -- -- 73
2018-09-20 00:00:00 20.7 0 Calma 10 Sudoeste 0 -- -- 69